Time;durP1;ratioP1;P1;durP2;ratioP2;P2;SDS_P1;SDS_P2;PMS_P1;PMS_P2;Temp;Humidity;BMP_temperature;BMP_pressure;BME280_temperature;BME280_humidity;BME280_pressure;Samples;Min_cycle;Max_cycle;Signal;HPM_P1;HPM_P2
2021/12/27 00:03:51;;;;;;;10.02;5.75;;;;;;;0.07;89.57;100652.78;10495630;28;20203;-77
2021/12/27 00:08:52;;;;;;;12.00;6.18;;;;;;;-0.29;90.28;100591.41;10495742;28;20040;-77
2021/12/27 00:13:53;;;;;;;11.90;5.78;;;;;;;0.30;91.19;100657.44;10495080;28;20043;-77
2021/12/27 00:18:54;;;;;;;11.95;6.53;;;;;;;-0.04;91.02;100599.41;10477152;28;20071;-78
2021/12/27 00:23:55;;;;;;;10.73;6.28;;;;;;;-1.14;90.76;100418.19;10495500;28;20483;-77
2021/12/27 00:28:56;;;;;;;13.23;5.88;;;;;;;-0.17;89.75;100603.69;10494394;28;20067;-78
2021/12/27 00:33:57;;;;;;;8.35;4.93;;;;;;;0.22;90.88;100651.84;10502053;28;20040;-77
2021/12/27 00:38:58;;;;;;;13.07;6.28;;;;;;;0.31;90.69;100666.94;10501190;28;20029;-77
2021/12/27 00:43:58;;;;;;;12.15;6.57;;;;;;;-0.29;90.26;100557.47;10501847;28;20455;-78
2021/12/27 00:48:59;;;;;;;10.50;6.03;;;;;;;-0.26;90.24;100579.00;10501692;28;20068;-77
2021/12/27 00:54:00;;;;;;;10.55;6.25;;;;;;;0.40;90.90;100666.38;10500906;28;20071;-77
2021/12/27 00:59:01;;;;;;;11.38;6.25;;;;;;;-0.11;89.93;100595.50;10480752;28;20517;-78
2021/12/27 01:04:03;;;;;;;13.38;6.25;;;;;;;-0.53;90.74;100516.25;10458556;28;20064;-77
2021/12/27 01:09:04;;;;;;;10.27;5.97;;;;;;;-0.06;90.60;100592.59;10459888;28;20091;-77
2021/12/27 01:19:11;;;;;;;13.27;6.43;;;;;;;0.02;89.37;100639.16;10458431;28;20481;-77
2021/12/27 01:24:12;;;;;;;14.60;7.30;;;;;;;-0.63;89.82;100527.31;10459498;28;20044;-78
2021/12/27 01:29:12;;;;;;;12.07;6.95;;;;;;;0.11;90.00;100662.94;10459467;28;20036;-77
2021/12/27 01:34:13;;;;;;;12.50;7.22;;;;;;;0.38;90.08;100685.69;10458626;28;20045;-77
2021/12/27 01:39:14;;;;;;;12.05;7.10;;;;;;;0.37;90.50;100677.00;10457544;28;20103;-77
2021/12/27 01:44:15;;;;;;;11.45;6.22;;;;;;;-0.02;90.13;100647.16;10458642;28;20164;-77
2021/12/27 01:49:16;;;;;;;12.85;7.18;;;;;;;-0.17;90.73;100650.69;10457989;28;20493;-78
2021/12/27 01:54:17;;;;;;;11.98;6.47;;;;;;;-0.82;90.89;100527.59;10458200;28;20390;-78
2021/12/27 01:59:18;;;;;;;14.15;6.53;;;;;;;0.09;91.11;100685.72;10457430;28;20041;-77
2021/12/27 02:04:19;;;;;;;14.65;6.30;;;;;;;-1.03;90.65;100508.81;10456102;28;20090;-77
2021/12/27 02:09:27;;;;;;;12.52;6.78;;;;;;;-1.42;90.75;100491.94;10456864;28;20067;-78
2021/12/27 02:14:28;;;;;;;12.25;6.60;;;;;;;-0.73;90.85;100626.16;10458002;28;20045;-78
2021/12/27 02:19:29;;;;;;;12.18;6.32;;;;;;;-0.68;90.38;100623.31;10455921;28;20037;-78
2021/12/27 02:24:30;;;;;;;12.05;6.05;;;;;;;-1.03;90.95;100606.13;10456402;28;20501;-77
2021/12/27 02:29:30;;;;;;;9.68;5.78;;;;;;;-0.37;90.68;100682.38;10455634;28;20394;-78
2021/12/27 02:34:32;;;;;;;11.85;6.07;;;;;;;-0.30;91.53;100691.50;10454791;28;20045;-78
2021/12/27 02:39:32;;;;;;;10.55;5.85;;;;;;;-0.42;90.59;100677.41;10456691;28;20094;-78
2021/12/27 02:44:35;;;;;;;13.65;6.32;;;;;;;-0.73;91.00;100624.38;10455169;28;20052;-78
2021/12/27 02:49:35;;;;;;;11.88;6.28;;;;;;;-0.98;90.10;100565.00;10455958;28;20037;-78
2021/12/27 02:54:41;;;;;;;12.23;6.63;;;;;;;-0.84;90.79;100603.28;10454798;28;20061;-77
2021/12/27 02:59:42;;;;;;;11.77;6.15;;;;;;;-0.64;90.66;100617.81;10454940;28;20045;-77
2021/12/27 03:04:47;;;;;;;13.50;6.07;;;;;;;-0.50;89.98;100675.25;10438074;28;20037;-77
2021/12/27 03:09:49;;;;;;;10.15;5.95;;;;;;;-1.48;90.24;100524.41;10454493;28;20045;-76
2021/12/27 03:14:49;;;;;;;15.05;6.30;;;;;;;-1.35;90.37;100565.41;10464292;28;20039;-76
2021/12/27 03:19:50;;;;;;;11.85;6.10;;;;;;;-2.16;89.89;100437.94;10495975;28;20507;-76
2021/12/27 03:24:52;;;;;;;10.93;5.88;;;;;;;-1.81;90.12;100521.91;10496357;28;20578;-76
2021/12/27 03:29:53;;;;;;;10.68;6.05;;;;;;;-0.94;90.51;100660.38;10496106;28;20037;-76
2021/12/27 03:34:57;;;;;;;13.73;6.68;;;;;;;-0.96;91.03;100646.59;10496474;28;20094;-77
2021/12/27 03:39:58;;;;;;;16.33;7.70;;;;;;;-1.16;91.15;100589.50;10477380;28;20040;-76
2021/12/27 03:44:59;;;;;;;13.23;6.93;;;;;;;-1.25;90.41;100550.94;10496343;28;20036;-76
2021/12/27 03:50:00;;;;;;;17.48;7.50;;;;;;;-0.33;90.41;100657.75;10496159;28;20090;-76
2021/12/27 03:55:01;;;;;;;26.17;7.88;;;;;;;-0.64;90.86;100578.66;10473990;28;20405;-76
2021/12/27 04:05:23;;;;;;;15.68;8.18;;;;;;;-0.39;91.82;100577.19;10492365;28;20135;-76
2021/12/27 04:10:24;;;;;;;17.77;8.05;;;;;;;0.05;92.02;100628.50;10496504;28;20035;-76
2021/12/27 04:15:25;;;;;;;19.77;8.07;;;;;;;-0.60;91.99;100504.50;10500766;28;20139;-76
2021/12/27 04:20:26;;;;;;;17.55;8.05;;;;;;;0.41;91.59;100675.88;10499985;28;20048;-76
2021/12/27 04:25:27;;;;;;;14.20;7.57;;;;;;;0.21;91.20;100660.63;10502187;28;20048;-76
2021/12/27 04:30:28;;;;;;;22.85;8.40;;;;;;;-0.95;90.76;100470.94;10487207;28;20435;-75
2021/12/27 04:35:29;;;;;;;12.80;7.32;;;;;;;-0.19;91.64;100584.66;10482877;28;20040;-78
2021/12/27 04:40:33;;;;;;;12.82;6.72;;;;;;;0.45;91.76;100679.16;10494491;28;20135;-75
2021/12/27 04:45:35;;;;;;;14.60;7.88;;;;;;;0.62;91.17;100662.41;10486132;28;20091;-77
2021/12/27 04:50:38;;;;;;;16.63;8.77;;;;;;;0.70;90.25;100644.47;10460537;28;20545;-80
2021/12/27 04:55:39;;;;;;;16.27;8.68;;;;;;;0.75;90.61;100628.47;10476673;28;20139;-79
2021/12/27 05:00:40;;;;;;;17.48;8.85;;;;;;;0.33;89.79;100531.81;10493033;28;20045;-79
2021/12/27 05:05:44;;;;;;;16.02;8.27;;;;;;;1.13;90.64;100644.31;10497601;28;20040;-79
2021/12/27 05:10:44;;;;;;;23.33;9.00;;;;;;;0.87;90.45;100607.63;10497802;28;20124;-78
2021/12/27 05:15:46;;;;;;;17.13;8.57;;;;;;;1.49;89.96;100758.88;10500328;28;20120;-76
2021/12/27 05:20:47;;;;;;;16.17;8.20;;;;;;;0.58;89.55;100617.34;10500820;28;20131;-77
2021/12/27 05:25:48;;;;;;;16.67;7.97;;;;;;;0.70;89.31;100589.56;10483399;28;20041;-73
2021/12/27 05:30:51;;;;;;;16.33;8.02;;;;;;;0.89;90.26;100613.59;10487583;28;20090;-78
2021/12/27 05:35:52;;;;;;;13.30;7.65;;;;;;;1.93;89.86;100765.59;10485268;28;20042;-74
2021/12/27 05:40:54;;;;;;;12.93;7.40;;;;;;;1.90;90.05;100764.97;10498596;28;20139;-74
2021/12/27 05:45:54;;;;;;;18.45;8.20;;;;;;;2.20;90.03;100777.78;10498436;28;20412;-74
2021/12/27 05:50:55;;;;;;;21.10;11.50;;;;;;;0.93;89.07;100558.44;10480994;28;20044;-74
2021/12/27 05:55:56;;;;;;;32.83;12.55;;;;;;;2.36;89.54;100799.38;10495623;28;20447;-75
2021/12/27 06:00:57;;;;;;;27.13;9.35;;;;;;;2.19;88.53;100755.16;10493690;28;20033;-75
2021/12/27 06:05:57;;;;;;;21.25;8.65;;;;;;;2.34;88.63;100769.00;10476952;28;20127;-74
2021/12/27 06:10:58;;;;;;;15.40;8.13;;;;;;;2.10;88.97;100740.06;10495092;28;20135;-74
2021/12/27 06:15:59;;;;;;;20.20;8.55;;;;;;;1.26;88.52;100585.03;10497142;28;20041;-74
2021/12/27 06:21:00;;;;;;;20.42;9.15;;;;;;;1.48;88.69;100594.03;10497950;28;20040;-74
2021/12/27 06:26:01;;;;;;;21.63;8.43;;;;;;;2.06;88.42;100666.03;10496568;28;20547;-75
2021/12/27 06:31:02;;;;;;;29.98;14.55;;;;;;;3.00;88.25;100815.13;10497506;28;20044;-74
2021/12/27 06:36:03;;;;;;;21.10;10.00;;;;;;;3.07;87.36;100800.59;10497549;28;20048;-74
2021/12/27 06:41:04;;;;;;;23.50;8.70;;;;;;;2.79;86.83;100749.22;10497223;28;20045;-74
2021/12/27 06:46:05;;;;;;;18.27;9.80;;;;;;;3.11;87.48;100794.19;10477997;28;20094;-74
2021/12/27 06:51:06;;;;;;;20.60;8.88;;;;;;;3.14;87.25;100786.09;10496356;28;20040;-73
2021/12/27 06:56:07;;;;;;;25.52;9.05;;;;;;;2.19;86.74;100617.06;10496880;28;20056;-73
2021/12/27 07:01:08;;;;;;;18.27;9.98;;;;;;;3.35;86.39;100788.13;10495765;28;20442;-73
2021/12/27 07:06:09;;;;;;;17.70;8.98;;;;;;;3.63;86.55;100802.72;10496324;28;20401;-74
2021/12/27 07:11:10;;;;;;;15.85;7.95;;;;;;;3.15;86.15;100698.53;10495779;28;20093;-73
2021/12/27 07:16:11;;;;;;;17.42;8.15;;;;;;;3.64;85.41;100772.88;10496494;28;20044;-73
2021/12/27 07:21:11;;;;;;;12.68;7.38;;;;;;;3.24;85.38;100665.50;10495224;28;20136;-73
2021/12/27 07:26:12;;;;;;;16.90;8.57;;;;;;;3.71;85.01;100732.06;10494934;28;20565;-73
2021/12/27 07:31:13;;;;;;;15.18;8.32;;;;;;;4.05;84.77;100745.31;10495860;28;20091;-72
2021/12/27 07:36:15;;;;;;;18.67;8.48;;;;;;;4.37;83.68;100745.47;10499869;28;20045;-73
2021/12/27 07:41:15;;;;;;;14.73;8.88;;;;;;;4.51;83.29;100736.50;10503358;28;20404;-73
2021/12/27 07:46:16;;;;;;;16.80;8.32;;;;;;;4.55;81.52;100690.59;10503888;28;20119;-73
2021/12/27 07:51:17;;;;;;;14.13;8.20;;;;;;;5.23;81.00;100751.88;10503514;28;20041;-72
2021/12/27 07:56:18;;;;;;;14.60;8.40;;;;;;;5.16;81.13;100743.63;10504110;28;20142;-71
2021/12/27 08:01:19;;;;;;;31.10;8.95;;;;;;;4.89;80.46;100696.66;10502482;28;20130;-72
2021/12/27 08:06:20;;;;;;;15.80;8.05;;;;;;;4.77;79.52;100658.16;10502418;28;20046;-72
2021/12/27 08:11:21;;;;;;;16.52;8.23;;;;;;;4.55;79.20;100590.63;10503167;28;20119;-72
2021/12/27 08:16:24;;;;;;;14.68;7.25;;;;;;;5.36;79.37;100713.03;10502843;28;20130;-72
2021/12/27 08:21:26;;;;;;;17.48;8.45;;;;;;;5.37;78.87;100712.06;10502280;28;20527;-72
2021/12/27 08:26:27;;;;;;;15.40;9.25;;;;;;;5.23;79.00;100681.59;10502107;28;20043;-72
2021/12/27 08:31:27;;;;;;;34.30;9.43;;;;;;;5.29;78.73;100669.72;10484245;28;20115;-72
2021/12/27 08:36:29;;;;;;;17.58;8.93;;;;;;;5.29;78.96;100690.78;10502561;28;20071;-72
2021/12/27 08:41:30;;;;;;;20.58;9.27;;;;;;;4.01;77.92;100429.25;10499446;28;20127;-72
2021/12/27 08:46:34;;;;;;;18.73;9.32;;;;;;;5.62;76.16;100649.44;10480687;28;20451;-73
2021/12/27 08:51:35;;;;;;;;;;;;;;;6.09;77.27;100676.25;10458013;28;20037;-72
2021/12/27 08:56:38;;;;;;;15.40;8.57;;;;;;;5.67;75.21;100602.44;10442125;28;19921;-74
2021/12/27 09:01:39;;;;;;;12.48;7.88;;;;;;;5.53;74.55;100561.44;10458865;28;20049;-73
2021/12/27 09:06:40;;;;;;;13.60;7.53;;;;;;;5.63;74.05;100543.91;10457918;28;20055;-72
2021/12/27 09:11:40;;;;;;;15.60;7.72;;;;;;;5.13;74.97;100467.34;10498029;28;20048;-73
2021/12/27 09:16:44;;;;;;;13.38;7.82;;;;;;;6.47;75.34;100687.97;10477537;28;20035;-73
2021/12/27 09:21:45;;;;;;;17.55;7.43;;;;;;;6.24;75.85;100653.84;10500113;28;20091;-74
2021/12/27 09:26:46;;;;;;;13.77;7.63;;;;;;;5.84;76.20;100590.47;10500457;28;20075;-73
2021/12/27 09:31:47;;;;;;;21.55;8.63;;;;;;;5.46;75.93;100549.75;10493655;28;20045;-72
2021/12/27 09:36:48;;;;;;;18.42;8.50;;;;;;;5.01;75.99;100484.19;10479220;28;20040;-73
2021/12/27 09:41:49;;;;;;;17.20;8.85;;;;;;;5.29;76.63;100530.09;10487052;28;20050;-74
2021/12/27 09:46:49;;;;;;;22.00;8.75;;;;;;;5.59;75.60;100574.09;10486737;28;20657;-74
2021/12/27 09:51:50;;;;;;;19.13;9.52;;;;;;;5.40;74.41;100553.75;10470507;28;20485;-73
2021/12/27 09:56:52;;;;;;;18.95;8.57;;;;;;;5.79;73.79;100630.41;10471721;28;20043;-74
2021/12/27 10:01:53;;;;;;;15.00;8.75;;;;;;;4.57;74.15;100415.88;10482906;28;20416;-73
2021/12/27 10:06:55;;;;;;;15.10;9.13;;;;;;;6.32;74.53;100688.31;10469282;28;20044;-74
2021/12/27 10:11:56;;;;;;;15.45;8.73;;;;;;;4.96;75.03;100486.38;10469663;28;20047;-74
2021/12/27 10:17:10;;;;;;;14.00;7.88;;;;;;;6.38;75.01;100706.25;10462891;28;20041;-73
2021/12/27 10:22:11;;;;;;;;;;;;;;;6.43;75.39;100689.19;10476718;28;20033;-73
2021/12/27 10:27:12;;;;;;;16.05;8.52;;;;;;;6.36;74.65;100689.72;10456024;28;19985;-74
2021/12/27 10:32:18;;;;;;;19.75;8.68;;;;;;;6.53;73.30;100646.03;10491568;28;20687;-74
2021/12/27 10:37:26;;;;;;;13.95;8.45;;;;;;;6.50;71.29;100637.56;10467947;28;20068;-74
2021/12/27 10:42:50;;;;;;;17.70;9.15;;;;;;;6.98;71.18;100719.53;10482943;28;20044;-74
2021/12/27 10:47:53;;;;;;;17.02;10.77;;;;;;;6.62;71.46;100647.88;10492543;28;20032;-73
2021/12/27 10:53:00;;;;;;;16.65;8.55;;;;;;;6.04;72.24;100557.13;10473225;28;20064;-74
2021/12/27 10:58:18;;;;;;;16.25;7.95;;;;;;;7.19;71.32;100697.47;10475658;28;20041;-74
2021/12/27 11:03:37;;;;;;;17.15;8.98;;;;;;;7.16;70.53;100695.94;10477177;28;20032;-74
2021/12/27 11:08:41;;;;;;;21.00;9.80;;;;;;;6.57;71.14;100567.41;10490031;28;20043;-73
2021/12/27 11:13:44;;;;;;;22.35;11.18;;;;;;;7.06;71.71;100663.38;10488985;28;20385;-74
2021/12/27 11:18:45;;;;;;;26.83;12.15;;;;;;;6.17;72.67;100537.47;10493165;28;20040;-74
2021/12/27 11:23:51;;;;;;;24.02;11.80;;;;;;;6.65;73.03;100641.47;10491338;28;20033;-75
2021/12/27 11:28:52;;;;;;;31.65;15.60;;;;;;;6.63;73.68;100646.88;10489003;28;20033;-74
2021/12/27 11:33:53;;;;;;;36.47;17.42;;;;;;;7.04;73.41;100702.31;10489276;28;20033;-74
2021/12/27 11:38:54;;;;;;;25.88;11.35;;;;;;;6.50;73.10;100621.72;10490684;28;20041;-74
2021/12/27 11:44:07;;;;;;;34.88;19.75;;;;;;;6.10;72.64;100561.88;10490539;28;20075;-75
2021/12/27 11:49:07;;;;;;;22.73;11.85;;;;;;;5.17;73.08;100404.72;10490263;28;20412;-75
2021/12/27 11:54:29;;;;;;;21.42;10.52;;;;;;;5.70;72.79;100494.94;10487276;28;20135;-73
2021/12/27 11:59:36;;;;;;;18.33;10.38;;;;;;;6.55;73.66;100667.00;10487568;28;20044;-72
2021/12/27 12:04:46;;;;;;;17.80;9.10;;;;;;;7.01;74.42;100764.16;10488375;28;20127;-72
2021/12/27 12:09:50;;;;;;;16.65;8.85;;;;;;;6.83;74.70;100771.88;10490939;28;20040;-72
2021/12/27 12:14:56;;;;;;;20.40;10.65;;;;;;;5.90;75.36;100637.41;10489207;28;20036;-72
2021/12/27 12:19:56;;;;;;;23.90;10.05;;;;;;;5.69;75.49;100625.06;10489697;28;20040;-74
2021/12/27 12:25:16;;;;;;;17.23;10.20;;;;;;;6.46;75.90;100787.44;10496744;28;20036;-75
2021/12/27 12:30:16;;;;;;;26.63;11.52;;;;;;;5.31;76.27;100609.00;10496093;28;20491;-75
2021/12/27 12:35:52;;;;;;;32.78;14.45;;;;;;;6.16;76.28;100753.88;10498123;28;20037;-75
2021/12/27 12:41:13;;;;;;;68.32;34.60;;;;;;;6.14;76.22;100753.19;10473777;28;20135;-74
2021/12/27 12:46:15;;;;;;;48.85;25.02;;;;;;;5.33;76.08;100649.25;10492239;28;20389;-76
2021/12/27 12:51:31;;;;;;;31.75;15.45;;;;;;;6.12;76.64;100790.25;10496450;28;20484;-77
2021/12/27 12:56:33;;;;;;;26.90;14.35;;;;;;;4.67;76.43;100557.22;10492088;28;20056;-76
2021/12/27 13:01:53;;;;;;;25.98;16.02;;;;;;;5.70;77.93;100752.44;10495918;28;20055;-78
2021/12/27 13:06:54;;;;;;;26.45;13.65;;;;;;;5.79;77.70;100771.94;10485353;28;20048;-76
2021/12/27 13:12:25;;;;;;;22.23;11.93;;;;;;;5.84;77.89;100812.78;10493000;28;20041;-76
2021/12/27 13:18:04;;;;;;;26.30;15.98;;;;;;;5.72;79.06;100814.63;10479768;28;20440;-77
2021/12/27 13:23:25;;;;;;;23.98;13.27;;;;;;;4.87;78.61;100680.13;10491252;28;20127;-76
2021/12/27 13:28:49;;;;;;;18.08;10.38;;;;;;;5.60;78.55;100826.16;10494723;28;20072;-75
2021/12/27 13:34:08;;;;;;;19.98;8.85;;;;;;;4.27;78.44;100607.75;10478900;28;20037;-75
2021/12/27 13:39:29;;;;;;;18.85;9.13;;;;;;;5.47;78.29;100831.59;10490449;28;20036;-73
2021/12/27 13:44:48;;;;;;;21.17;9.45;;;;;;;5.19;78.64;100789.94;10488582;28;20408;-78
2021/12/27 13:50:08;;;;;;;15.55;9.18;;;;;;;5.19;79.05;100803.13;10494179;28;20500;-72
2021/12/27 13:55:30;;;;;;;18.98;9.15;;;;;;;5.25;80.04;100842.16;10491066;28;20044;-76
2021/12/27 14:00:55;;;;;;;18.10;9.93;;;;;;;5.29;80.29;100846.19;10492550;28;20073;-75
2021/12/27 14:06:16;;;;;;;17.27;10.23;;;;;;;4.55;80.27;100741.44;10490847;28;20045;-76
2021/12/27 14:11:53;;;;;;;130.50;48.13;;;;;;;5.09;81.38;100820.63;10484233;28;20499;-77
2021/12/27 14:17:14;;;;;;;28.70;14.20;;;;;;;4.56;80.87;100772.03;10483926;28;20045;-77
2021/12/27 14:22:42;;;;;;;21.15;10.48;;;;;;;4.00;82.22;100690.44;10490292;28;20574;-77
2021/12/27 14:28:02;;;;;;;25.40;13.75;;;;;;;4.80;81.80;100829.81;10486517;28;20048;-77
2021/12/27 14:33:22;;;;;;;26.70;11.70;;;;;;;4.50;82.01;100809.34;10482905;28;20127;-78
2021/12/27 14:38:41;;;;;;;17.48;9.65;;;;;;;4.48;82.16;100849.88;10487342;28;20044;-77
2021/12/27 14:44:01;;;;;;;17.63;9.77;;;;;;;3.57;82.47;100714.69;10486322;28;20040;-79
2021/12/27 14:49:22;;;;;;;26.98;14.48;;;;;;;4.15;83.69;100830.41;10473936;28;20045;-79
2021/12/27 14:54:43;;;;;;;35.90;17.92;;;;;;;4.62;84.43;100904.91;10438232;28;20347;-76
2021/12/27 15:00:06;;;;;;;47.95;22.35;;;;;;;3.58;85.05;100755.78;10432916;28;20052;-77
2021/12/27 15:05:26;;;;;;;42.95;20.83;;;;;;;4.04;84.62;100833.84;10447149;28;20037;-78
2021/12/27 15:10:28;;;;;;;24.48;13.65;;;;;;;4.00;84.69;100887.59;10447626;28;20094;-78
2021/12/27 15:15:29;;;;;;;23.10;12.35;;;;;;;4.12;84.77;100920.03;10445663;28;20029;-78
2021/12/27 15:20:33;;;;;;;18.55;10.70;;;;;;;4.01;84.97;100907.69;10431849;28;20768;-78
2021/12/27 15:25:53;;;;;;;20.58;12.05;;;;;;;3.73;85.67;100869.41;10439444;28;20049;-75
2021/12/27 15:30:55;;;;;;;28.13;12.75;;;;;;;3.78;86.30;100874.34;10415909;28;20042;-75
2021/12/27 15:36:00;;;;;;;20.38;11.68;;;;;;;3.11;86.34;100760.06;10449907;28;20052;-76
2021/12/27 15:41:01;;;;;;;18.67;10.77;;;;;;;3.84;86.92;100876.53;10453597;28;20040;-75
2021/12/27 15:46:02;;;;;;;20.33;10.07;;;;;;;4.06;86.65;100910.81;10453520;28;20187;-76
2021/12/27 15:51:04;;;;;;;21.30;9.95;;;;;;;4.12;85.70;100941.06;10435044;28;20451;-75
2021/12/27 15:56:05;;;;;;;17.13;10.07;;;;;;;4.17;87.04;100943.38;10455104;28;20061;-75
2021/12/27 16:01:26;;;;;;;16.83;9.85;;;;;;;3.65;86.84;100856.84;10435224;28;20056;-77
2021/12/27 16:06:30;;;;;;;15.50;8.82;;;;;;;3.70;86.12;100861.75;10430025;28;20048;-77
2021/12/27 16:11:31;;;;;;;14.98;8.77;;;;;;;2.18;86.13;100657.31;10441654;28;20553;-77
2021/12/27 16:16:32;;;;;;;21.10;10.45;;;;;;;3.23;86.91;100837.13;10437417;28;20107;-77
2021/12/27 16:21:34;;;;;;;17.50;9.73;;;;;;;3.06;86.84;100806.81;10431406;28;20099;-77
2021/12/27 16:26:35;;;;;;;18.33;10.02;;;;;;;3.81;86.35;100937.19;10438200;28;20075;-76
2021/12/27 16:31:36;;;;;;;16.42;9.25;;;;;;;3.62;86.35;100935.88;10457914;28;20085;-76
2021/12/27 16:36:38;;;;;;;17.02;9.52;;;;;;;3.41;86.22;100884.84;10445485;28;20037;-77
2021/12/27 16:41:39;;;;;;;16.75;9.80;;;;;;;2.83;86.38;100818.06;10460494;28;20046;-76
2021/12/27 16:46:40;;;;;;;16.27;9.25;;;;;;;1.63;85.62;100632.28;10438444;28;20029;-76
2021/12/27 16:51:41;;;;;;;19.45;10.88;;;;;;;2.86;86.32;100849.34;10438725;28;20037;-76
2021/12/27 16:56:45;;;;;;;20.15;11.60;;;;;;;2.23;87.24;100751.38;10491417;28;20113;-75
2021/12/27 17:01:45;;;;;;;21.48;11.25;;;;;;;2.71;88.18;100853.84;10490973;28;20044;-77
2021/12/27 17:06:46;;;;;;;24.25;12.05;;;;;;;2.71;89.15;100864.34;10441131;28;20041;-76
2021/12/27 17:11:47;;;;;;;23.67;12.90;;;;;;;1.92;89.57;100755.22;10458908;28;20036;-76
2021/12/27 17:16:48;;;;;;;25.77;12.60;;;;;;;2.49;89.22;100842.22;10479200;28;20094;-77
2021/12/27 17:21:49;;;;;;;26.15;13.45;;;;;;;0.91;89.34;100590.78;10497057;28;20480;-78
2021/12/27 17:26:50;;;;;;;21.20;11.57;;;;;;;3.23;89.45;100930.78;10497411;28;20056;-76
2021/12/27 17:32:00;;;;;;;23.45;12.45;;;;;;;3.10;90.01;100905.38;10497583;28;21169;-76
2021/12/27 17:37:01;;;;;;;19.92;11.43;;;;;;;2.49;89.87;100810.75;10497542;28;20041;-76
2021/12/27 17:42:05;;;;;;;18.52;11.05;;;;;;;2.24;89.77;100787.97;10491742;28;20055;-77
2021/12/27 17:47:07;;;;;;;20.60;10.80;;;;;;;2.37;90.68;100818.59;10495571;28;20036;-77
2021/12/27 17:52:08;;;;;;;16.90;10.98;;;;;;;2.95;90.69;100916.94;10496563;28;20056;-76
2021/12/27 17:57:09;;;;;;;21.15;11.32;;;;;;;2.45;91.89;100856.47;10495938;28;20057;-76
2021/12/27 18:02:11;;;;;;;21.77;11.32;;;;;;;1.77;93.06;100754.47;10474033;28;20135;-75
2021/12/27 18:07:12;;;;;;;18.15;10.80;;;;;;;2.59;94.01;100876.50;10495565;28;20109;-76
2021/12/27 18:12:19;;;;;;;16.77;9.70;;;;;;;2.59;95.94;100855.53;10496950;28;20097;-75
2021/12/27 18:17:20;;;;;;;47.75;12.30;;;;;;;2.47;96.90;100853.75;10475669;28;20094;-76
2021/12/27 18:22:21;;;;;;;67.38;13.18;;;;;;;2.35;96.93;100879.00;10490051;28;20106;-78
2021/12/27 18:27:22;;;;;;;59.08;13.68;;;;;;;-0.19;96.43;100506.34;10473489;28;20166;-76
2021/12/27 18:34:54;;;;;;;23.48;13.27;;;;;;;1.50;96.26;100751.88;10497576;27;20432;-75
2021/12/27 18:39:54;;;;;;;25.65;13.07;;;;;;;1.73;96.37;100789.63;10490173;28;20459;-76
2021/12/27 18:44:55;;;;;;;44.45;13.45;;;;;;;2.05;96.59;100842.56;10490100;28;20040;-77
2021/12/27 18:49:57;;;;;;;39.50;14.55;;;;;;;2.41;96.85;100885.63;10490107;28;20037;-76
2021/12/27 18:54:58;;;;;;;27.83;13.35;;;;;;;2.35;96.54;100852.78;10489708;28;20509;-74
2021/12/27 18:59:59;;;;;;;59.38;13.63;;;;;;;2.70;97.00;100902.88;10428338;28;20037;-76
2021/12/27 19:05:00;;;;;;;33.03;13.73;;;;;;;2.98;96.97;100937.72;10406794;28;20046;-77
2021/12/27 19:10:01;;;;;;;27.80;12.65;;;;;;;3.16;97.03;100960.09;10438315;28;20037;-76
2021/12/27 19:15:02;;;;;;;21.98;12.50;;;;;;;3.24;97.32;100969.25;10447558;28;20037;-76
2021/12/27 19:20:05;;;;;;;20.27;12.35;;;;;;;2.93;97.23;100892.56;10447259;28;20033;-76
2021/12/27 19:25:07;;;;;;;24.67;11.52;;;;;;;3.08;96.72;100906.44;10446701;28;20045;-76
2021/12/27 19:30:10;;;;;;;16.73;11.07;;;;;;;1.98;97.49;100733.84;10446698;28;20041;-79
2021/12/27 19:35:15;;;;;;;20.67;11.45;;;;;;;3.39;97.94;100955.03;10446212;28;20045;-77
2021/12/27 19:40:17;;;;;;;21.38;11.32;;;;;;;2.65;97.98;100818.38;10461940;28;20120;-76
2021/12/27 19:45:18;;;;;;;23.73;12.20;;;;;;;2.60;97.92;100799.50;10423448;28;20056;-76
2021/12/27 19:50:20;;;;;;;35.85;12.25;;;;;;;3.33;98.00;100916.09;10419235;28;20048;-77
2021/12/27 19:55:22;;;;;;;36.33;11.88;;;;;;;3.52;98.23;100969.00;10418229;28;20064;-77
2021/12/27 20:00:26;;;;;;;33.95;12.82;;;;;;;3.55;98.10;100979.28;10418586;28;20041;-76
2021/12/27 20:05:28;;;;;;;31.63;13.23;;;;;;;3.10;98.33;100889.63;10419001;28;20060;-76
2021/12/27 20:10:28;;;;;;;20.10;11.27;;;;;;;3.58;98.59;100978.22;10418635;28;20053;-76
2021/12/27 20:15:32;;;;;;;23.80;12.63;;;;;;;3.56;98.95;100959.09;10403938;28;20037;-76
2021/12/27 20:20:33;;;;;;;21.08;11.98;;;;;;;3.54;99.26;100951.34;10400528;28;20140;-77
2021/12/27 20:25:35;;;;;;;23.48;12.52;;;;;;;3.46;98.92;100935.28;10411460;28;20046;-77
2021/12/27 20:30:37;;;;;;;24.73;13.02;;;;;;;3.10;99.45;100881.75;10374725;28;20061;-77
2021/12/27 20:35:39;;;;;;;89.45;14.25;;;;;;;3.58;98.29;100986.94;10376165;28;20465;-77
2021/12/27 20:40:40;;;;;;;68.40;16.08;;;;;;;3.42;99.04;100953.03;10375729;28;20042;-79
2021/12/27 20:45:41;;;;;;;55.38;16.05;;;;;;;2.85;98.63;100845.88;10376336;28;20046;-77
2021/12/27 20:50:42;;;;;;;80.93;15.50;;;;;;;2.64;98.54;100814.09;10374191;28;20049;-77
2021/12/27 20:55:43;;;;;;;69.85;15.43;;;;;;;3.41;98.67;100946.13;10372836;28;20701;-77
2021/12/27 21:00:47;;;;;;;120.53;16.02;;;;;;;3.37;98.91;100930.66;10374060;28;20049;-77
2021/12/27 21:05:50;;;;;;;78.28;15.63;;;;;;;3.01;99.00;100877.16;10375508;28;20049;-77
2021/12/27 21:10:52;;;;;;;35.67;14.32;;;;;;;3.11;98.23;100890.47;10374669;28;20046;-77
2021/12/27 21:15:53;;;;;;;50.78;13.70;;;;;;;3.35;98.83;100953.56;10372676;28;20030;-77
2021/12/27 21:20:54;;;;;;;30.02;14.23;;;;;;;3.38;99.74;100945.47;10374395;28;20084;-77
2021/12/27 21:25:57;;;;;;;31.85;15.27;;;;;;;3.45;100.00;100959.88;10374505;28;20495;-78
2021/12/27 21:31:16;;;;;;;66.82;17.52;;;;;;;3.46;99.51;100948.41;10373734;28;20065;-77
2021/12/27 21:36:36;;;;;;;145.10;18.25;;;;;;;3.29;99.41;100938.22;10373947;28;20049;-77
2021/12/27 21:42:01;;;;;;;36.03;16.23;;;;;;;3.33;97.86;100927.41;10372772;28;20053;-77
2021/12/27 21:47:03;;;;;;;42.15;15.75;;;;;;;1.64;98.81;100661.91;10373598;28;20049;-77
2021/12/27 21:52:06;;;;;;;23.25;12.75;;;;;;;1.58;98.18;100645.66;10373881;28;20452;-77
2021/12/27 21:57:07;;;;;;;27.35;13.07;;;;;;;2.84;98.36;100866.97;10373287;28;20041;-77
2021/12/27 22:02:07;;;;;;;23.13;12.40;;;;;;;1.93;99.30;100713.19;10372448;28;20041;-77
2021/12/27 22:07:08;;;;;;;31.98;13.52;;;;;;;2.62;99.76;100834.34;10373085;28;20481;-77
2021/12/27 22:12:09;;;;;;;44.25;13.73;;;;;;;2.87;99.23;100865.00;10372919;28;20088;-77
2021/12/27 22:17:11;;;;;;;33.60;13.02;;;;;;;3.25;98.76;100944.66;10372730;28;20088;-77
2021/12/27 22:22:11;;;;;;;31.98;13.10;;;;;;;3.18;99.08;100924.06;10393123;28;20036;-77
2021/12/27 22:27:12;;;;;;;43.80;13.32;;;;;;;2.98;99.72;100904.44;10390837;28;20045;-77
2021/12/27 22:32:13;;;;;;;36.17;13.93;;;;;;;2.36;99.95;100785.44;10371559;28;20153;-78
2021/12/27 22:37:15;;;;;;;36.80;14.23;;;;;;;2.12;100.00;100753.88;10398834;28;20524;-77
2021/12/27 22:42:18;;;;;;;103.60;14.15;;;;;;;3.33;100.00;100952.84;10412796;28;20465;-77
2021/12/27 22:47:18;;;;;;;35.72;14.23;;;;;;;3.22;100.00;100945.69;10413556;28;20038;-77
2021/12/27 22:52:19;;;;;;;65.70;13.75;;;;;;;2.59;100.00;100852.06;10412631;28;20071;-77
2021/12/27 22:57:21;;;;;;;63.95;15.00;;;;;;;2.73;100.00;100886.91;10411221;28;20060;-77
2021/12/27 23:02:21;;;;;;;28.27;14.88;;;;;;;2.61;100.00;100874.63;10413170;28;20037;-77
2021/12/27 23:07:22;;;;;;;33.13;14.70;;;;;;;2.27;100.00;100803.50;10412875;28;20037;-77
2021/12/27 23:12:25;;;;;;;38.20;14.73;;;;;;;2.67;100.00;100873.38;10412643;28;20037;-77
2021/12/27 23:17:26;;;;;;;31.38;13.27;;;;;;;3.26;99.31;100975.19;10428969;28;20041;-77
2021/12/27 23:22:27;;;;;;;52.17;15.02;;;;;;;3.02;99.45;100952.34;10434816;28;20053;-77